UAUU

Kostanay West Airport

Kostanay, Kazakhstan
TAF UAUU 181100Z 1812/1821 30005MPS 6000 SCT006 BKN010CB BKN100 TEMPO 1812/1820 VRB14MPS 3000 TSRA SQ TEMPO 1820/1821 2000 -SHRA BR
Issued Valid From Valid To
Jun-18 @ 11:00 UTC
(2 hours ago)
Jun-18 @ 12:00 UTC
(an hour ago)
Jun-18 @ 21:00 UTC
(in 8 hours)
Jun-18 @ 12:00 to Jun-18 @ 21:00
TAF UAUU 181100Z 1812/1821 30005MPS 6000 SCT006 BKN010CB BKN100
Wind Visibility Clouds
300° at 10 knots 6,003 meters
  • Scattered at 600' AGL
  • Broken at 1,000' AGL
  • Broken at 10,000' AGL
Temporary Jun-18 @ 12:00 to Jun-18 @ 20:00
TEMPO 1812/1820 VRB14MPS 3000 TSRA SQ
Wind Visibility Conditions
Variable at 27 knots 2,993 meters
  • Thunderstorm
  • Rain
  • Squalls
Temporary Jun-18 @ 20:00 to Jun-18 @ 21:00
TEMPO 1820/1821 2000 -SHRA BR
Visibility Conditions
1,996 meters
  • Light Rain
  • Mist
TAF UAUU 181100Z 1812/1821 30005MPS 6000 SCT006 BKN010CB BKN100 TEMPO 1812/1820 VRB14MPS 3000 TSRA SQ TEMPO 1820/1821 2000 -SHRA BR
Issued Jun-18 @ 11:00 UTC
(2 hours ago)
Valid From Jun-18 @ 12:00 UTC
(an hour ago)
Valid To Jun-18 @ 21:00 UTC
(in 8 hours)
Jun-18 @ 12:00 - Jun-18 @ 21:00
Wind Visibility
300° at 10 knots 6,003 meters
Clouds
  • Scattered at 600' AGL
  • Broken at 1,000' AGL
  • Broken at 10,000' AGL
Temporary Jun-18 @ 12:00 - Jun-18 @ 20:00
Wind Visibility
Variable at 27 knots 2,993 meters
Conditions
  • Thunderstorm
  • Rain
  • Squalls
Temporary Jun-18 @ 20:00 - Jun-18 @ 21:00
Conditions
  • Light Rain
  • Mist